Time;durP1;ratioP1;P1;durP2;ratioP2;P2;SDS_P1;SDS_P2;PMS_P1;PMS_P2;Temp;Humidity;BMP_temperature;BMP_pressure;BME280_temperature;BME280_humidity;BME280_pressure;Samples;Min_cycle;Max_cycle;Signal;HPM_P1;HPM_P2
2022/07/24 00:02:09;;;;;;;14.10;10.48;;;;;;;;;;4983538;28;20038;-71
2022/07/24 00:04:35;;;;;;;17.80;9.55;;;;;;;;;;4975814;28;20493;-70
2022/07/24 00:07:02;;;;;;;10.55;9.50;;;;;;;;;;4992896;28;20074;-71
2022/07/24 00:09:28;;;;;;;11.05;9.93;;;;;;;;;;4993480;28;20117;-70
2022/07/24 00:11:54;;;;;;;14.75;9.93;;;;;;;;;;4993096;28;20074;-73
2022/07/24 00:14:20;;;;;;;12.13;10.98;;;;;;;;;;4992814;28;20026;-73
2022/07/24 00:16:46;;;;;;;12.90;9.88;;;;;;;;;;4992908;28;20027;-74
2022/07/24 00:19:12;;;;;;;13.20;10.57;;;;;;;;;;4992948;28;20026;-74
2022/07/24 00:21:38;;;;;;;10.15;9.32;;;;;;;;;;4993156;28;20109;-74
2022/07/24 00:24:05;;;;;;;10.25;9.40;;;;;;;;;;4992866;28;20500;-73
2022/07/24 00:26:31;;;;;;;10.27;9.10;;;;;;;;;;4991484;28;20117;-73
2022/07/24 00:28:57;;;;;;;10.85;9.73;;;;;;;;;;4992961;28;20031;-71
2022/07/24 00:31:24;;;;;;;13.43;9.63;;;;;;;;;;4992453;28;20052;-72
2022/07/24 00:33:50;;;;;;;10.40;9.30;;;;;;;;;;4992648;28;20034;-73
2022/07/24 00:36:16;;;;;;;9.75;8.75;;;;;;;;;;4992419;28;20054;-73
2022/07/24 00:38:42;;;;;;;13.70;9.30;;;;;;;;;;4992320;28;20028;-71
2022/07/24 00:41:09;;;;;;;10.43;9.27;;;;;;;;;;4992645;28;20045;-71
2022/07/24 00:43:35;;;;;;;13.27;9.73;;;;;;;;;;4992421;28;20022;-73
2022/07/24 00:46:01;;;;;;;13.07;9.07;;;;;;;;;;4991255;28;20034;-72
2022/07/24 00:48:27;;;;;;;12.25;9.80;;;;;;;;;;4992430;28;20424;-71
2022/07/24 00:50:53;;;;;;;11.55;9.68;;;;;;;;;;4992607;28;20022;-71
2022/07/24 00:53:19;;;;;;;13.43;10.13;;;;;;;;;;4992394;28;20026;-71
2022/07/24 00:55:45;;;;;;;14.75;10.13;;;;;;;;;;4992447;28;20113;-72
2022/07/24 00:58:13;;;;;;;11.38;8.98;;;;;;;;;;4992300;28;20042;-69
2022/07/24 01:00:39;;;;;;;10.73;9.63;;;;;;;;;;4978664;28;20409;-72
2022/07/24 01:03:05;;;;;;;10.10;9.00;;;;;;;;;;4966944;28;20489;-73
2022/07/24 01:05:31;;;;;;;10.93;9.32;;;;;;;;;;4974548;28;20125;-70
2022/07/24 01:07:57;;;;;;;13.50;9.43;;;;;;;;;;4992323;28;20027;-72
2022/07/24 01:10:23;;;;;;;16.77;9.05;;;;;;;;;;4992342;28;20536;-70
2022/07/24 01:12:50;;;;;;;10.70;9.10;;;;;;;;;;4993431;28;20022;-71
2022/07/24 01:15:16;;;;;;;10.30;9.07;;;;;;;;;;4996314;28;20030;-71
2022/07/24 01:17:42;;;;;;;11.48;9.52;;;;;;;;;;4996648;28;20528;-72
2022/07/24 01:20:09;;;;;;;12.85;9.32;;;;;;;;;;4996355;28;20038;-72
2022/07/24 01:22:35;;;;;;;12.32;8.70;;;;;;;;;;4982263;28;20025;-73
2022/07/24 01:25:01;;;;;;;11.57;10.07;;;;;;;;;;4995884;28;20027;-71
2022/07/24 01:27:27;;;;;;;10.57;9.50;;;;;;;;;;4985567;28;20492;-71
2022/07/24 01:29:53;;;;;;;9.82;8.63;;;;;;;;;;4992594;28;20042;-71
2022/07/24 01:32:20;;;;;;;10.52;9.32;;;;;;;;;;4992593;28;20053;-71
2022/07/24 01:34:46;;;;;;;14.85;10.05;;;;;;;;;;4995619;28;20018;-69
2022/07/24 01:37:12;;;;;;;10.45;9.30;;;;;;;;;;4995915;28;20022;-70
2022/07/24 01:39:38;;;;;;;13.95;10.48;;;;;;;;;;4995633;28;20426;-70
2022/07/24 01:42:04;;;;;;;10.57;9.48;;;;;;;;;;4991091;28;20019;-70
2022/07/24 01:44:30;;;;;;;10.00;9.10;;;;;;;;;;4986707;28;20034;-71
2022/07/24 01:46:56;;;;;;;12.48;11.10;;;;;;;;;;4995509;28;20026;-71
2022/07/24 01:49:22;;;;;;;11.68;10.52;;;;;;;;;;4995670;28;20034;-69
2022/07/24 01:51:48;;;;;;;15.52;9.88;;;;;;;;;;4995405;28;20109;-70
2022/07/24 01:54:14;;;;;;;10.25;9.25;;;;;;;;;;4977485;28;20035;-69
2022/07/24 01:56:40;;;;;;;11.00;9.73;;;;;;;;;;4977723;28;20038;-68
2022/07/24 01:59:06;;;;;;;11.63;9.65;;;;;;;;;;4995153;28;20493;-70
2022/07/24 02:01:33;;;;;;;10.60;9.55;;;;;;;;;;4990328;28;20516;-70
2022/07/24 02:03:59;;;;;;;10.27;9.20;;;;;;;;;;4992674;28;20062;-67
2022/07/24 02:06:25;;;;;;;12.07;9.80;;;;;;;;;;4995189;28;20466;-68
2022/07/24 02:08:51;;;;;;;9.85;8.85;;;;;;;;;;4995023;28;20494;-70
2022/07/24 02:11:18;;;;;;;10.73;9.63;;;;;;;;;;4977326;28;20078;-69
2022/07/24 02:13:45;;;;;;;12.98;8.93;;;;;;;;;;4995468;28;20389;-75
2022/07/24 02:16:11;;;;;;;11.00;9.00;;;;;;;;;;4995249;28;20018;-76
2022/07/24 02:18:37;;;;;;;12.57;9.70;;;;;;;;;;4977831;28;20513;-73
2022/07/24 02:21:03;;;;;;;13.77;9.68;;;;;;;;;;4994836;28;20038;-72
2022/07/24 02:23:29;;;;;;;10.95;9.05;;;;;;;;;;4977132;28;20023;-72
2022/07/24 02:25:55;;;;;;;11.63;9.30;;;;;;;;;;4994086;28;20069;-72
2022/07/24 02:28:21;;;;;;;11.00;9.90;;;;;;;;;;4981004;28;20529;-71
2022/07/24 02:30:47;;;;;;;11.13;9.80;;;;;;;;;;4994770;28;20034;-71
2022/07/24 02:33:13;;;;;;;12.73;8.70;;;;;;;;;;4992025;28;20036;-69
2022/07/24 02:35:40;;;;;;;10.63;9.57;;;;;;;;;;4977387;28;20026;-70
2022/07/24 02:38:06;;;;;;;10.13;9.13;;;;;;;;;;4977304;28;20033;-72
2022/07/24 02:40:32;;;;;;;10.60;9.50;;;;;;;;;;4976942;28;20038;-70
2022/07/24 02:42:58;;;;;;;10.25;9.25;;;;;;;;;;4977099;28;20053;-72
2022/07/24 02:45:24;;;;;;;10.73;9.63;;;;;;;;;;4994476;28;20022;-73
2022/07/24 02:47:52;;;;;;;9.98;9.07;;;;;;;;;;4977113;28;20030;-70
2022/07/24 02:50:19;;;;;;;10.32;9.40;;;;;;;;;;4994438;28;20105;-70
2022/07/24 02:52:45;;;;;;;14.18;9.57;;;;;;;;;;4976948;28;20022;-70
2022/07/24 02:55:11;;;;;;;12.70;9.02;;;;;;;;;;4976706;28;20537;-69
2022/07/24 02:57:37;;;;;;;10.75;9.68;;;;;;;;;;4994397;28;20050;-69
2022/07/24 03:00:06;;;;;;;10.52;9.45;;;;;;;;;;4994363;28;20035;-71
2022/07/24 03:02:32;;;;;;;10.35;9.35;;;;;;;;;;4986505;28;20014;-72
2022/07/24 03:04:58;;;;;;;13.18;9.63;;;;;;;;;;4976640;28;20607;-73
2022/07/24 03:07:24;;;;;;;10.55;9.45;;;;;;;;;;4994086;28;20049;-72
2022/07/24 03:09:50;;;;;;;16.48;10.95;;;;;;;;;;4985143;28;20090;-72
2022/07/24 03:12:16;;;;;;;23.33;10.77;;;;;;;;;;4990071;28;20049;-72
2022/07/24 03:14:42;;;;;;;12.93;10.90;;;;;;;;;;4994535;28;20366;-72
2022/07/24 03:17:08;;;;;;;12.52;10.63;;;;;;;;;;4993831;28;20028;-72
2022/07/24 03:19:34;;;;;;;19.45;11.60;;;;;;;;;;4993749;28;20037;-72
2022/07/24 03:22:00;;;;;;;23.20;11.65;;;;;;;;;;4993956;28;20073;-72
2022/07/24 03:24:27;;;;;;;27.95;13.00;;;;;;;;;;4993828;28;20039;-73
2022/07/24 03:26:53;;;;;;;33.63;15.30;;;;;;;;;;4988532;28;20050;-72
2022/07/24 03:29:19;;;;;;;32.10;17.48;;;;;;;;;;4986044;28;20030;-70
2022/07/24 03:31:45;;;;;;;31.20;17.33;;;;;;;;;;4990990;28;20026;-72
2022/07/24 03:34:11;;;;;;;29.55;17.45;;;;;;;;;;4993527;28;20022;-71
2022/07/24 03:36:37;;;;;;;27.85;18.85;;;;;;;;;;4990777;28;20038;-70
2022/07/24 03:39:04;;;;;;;23.58;18.42;;;;;;;;;;4981761;28;20112;-71
2022/07/24 03:41:30;;;;;;;25.13;18.70;;;;;;;;;;4993166;28;20035;-70
2022/07/24 03:43:56;;;;;;;20.95;18.58;;;;;;;;;;4993522;28;20029;-72
2022/07/24 03:46:22;;;;;;;20.77;17.95;;;;;;;;;;4993336;28;20496;-72
2022/07/24 03:48:48;;;;;;;31.05;18.60;;;;;;;;;;4993392;28;20023;-72
2022/07/24 03:51:14;;;;;;;27.13;17.77;;;;;;;;;;4983301;28;20027;-70
2022/07/24 03:53:40;;;;;;;24.33;19.02;;;;;;;;;;4989621;28;20046;-68
2022/07/24 03:56:07;;;;;;;22.02;18.80;;;;;;;;;;4993170;28;20058;-73
2022/07/24 03:58:33;;;;;;;24.40;19.42;;;;;;;;;;4992965;28;20469;-74
2022/07/24 04:00:59;;;;;;;25.77;20.58;;;;;;;;;;4993412;28;20085;-72
2022/07/24 04:03:25;;;;;;;26.67;20.20;;;;;;;;;;4993134;28;20097;-74
2022/07/24 04:05:51;;;;;;;23.52;19.33;;;;;;;;;;4975361;28;20030;-71
2022/07/24 04:08:17;;;;;;;23.02;19.52;;;;;;;;;;4993173;28;20524;-71
2022/07/24 04:10:44;;;;;;;24.08;19.98;;;;;;;;;;4993289;28;20105;-70
2022/07/24 04:13:10;;;;;;;25.63;20.20;;;;;;;;;;4975733;28;20026;-69
2022/07/24 04:15:36;;;;;;;26.70;19.65;;;;;;;;;;4992901;28;20026;-71
2022/07/24 04:18:02;;;;;;;27.42;19.55;;;;;;;;;;4975121;28;20117;-71
2022/07/24 04:20:28;;;;;;;24.73;19.92;;;;;;;;;;4992747;28;20472;-71
2022/07/24 04:22:54;;;;;;;22.60;20.25;;;;;;;;;;4992735;28;20046;-71
2022/07/24 04:25:20;;;;;;;25.65;20.20;;;;;;;;;;4992918;28;20026;-74
2022/07/24 04:27:47;;;;;;;25.73;19.83;;;;;;;;;;4992609;28;20023;-73
2022/07/24 04:30:14;;;;;;;25.10;19.33;;;;;;;;;;4992770;28;20492;-71
2022/07/24 04:32:40;;;;;;;24.05;19.83;;;;;;;;;;4975126;28;20105;-72
2022/07/24 04:35:06;;;;;;;24.15;19.35;;;;;;;;;;4992756;28;20025;-72
2022/07/24 04:37:32;;;;;;;23.05;20.55;;;;;;;;;;4992611;28;20022;-73
2022/07/24 04:39:58;;;;;;;26.60;20.48;;;;;;;;;;4992652;28;20035;-70
2022/07/24 04:42:24;;;;;;;23.85;20.13;;;;;;;;;;4992718;28;20022;-72
2022/07/24 04:44:50;;;;;;;31.05;24.10;;;;;;;;;;4992630;28;20154;-74
2022/07/24 04:47:17;;;;;;;24.42;21.05;;;;;;;;;;4992621;28;20055;-74
2022/07/24 04:49:43;;;;;;;24.10;20.27;;;;;;;;;;4996806;28;20022;-72
2022/07/24 04:52:09;;;;;;;29.65;20.10;;;;;;;;;;4996543;28;20023;-71
2022/07/24 04:54:35;;;;;;;23.13;20.65;;;;;;;;;;4979282;28;20547;-74
2022/07/24 04:57:01;;;;;;;24.88;19.42;;;;;;;;;;4996313;28;20044;-74
2022/07/24 04:59:27;;;;;;;26.33;22.10;;;;;;;;;;4996275;28;20042;-73
2022/07/24 05:01:53;;;;;;;21.77;19.05;;;;;;;;;;4989519;28;20090;-76
2022/07/24 05:04:19;;;;;;;24.52;19.30;;;;;;;;;;4996602;28;20015;-70
2022/07/24 05:06:46;;;;;;;22.58;20.17;;;;;;;;;;4979331;28;20551;-72
2022/07/24 05:09:13;;;;;;;25.45;21.02;;;;;;;;;;4996549;28;20022;-70
2022/07/24 05:11:39;;;;;;;24.33;21.23;;;;;;;;;;4978952;28;20413;-69
2022/07/24 05:14:05;;;;;;;25.10;20.15;;;;;;;;;;4996596;28;20022;-69
2022/07/24 05:16:31;;;;;;;24.67;20.02;;;;;;;;;;4996727;28;20030;-69
2022/07/24 05:18:57;;;;;;;26.08;18.95;;;;;;;;;;4996454;28;20539;-74
2022/07/24 05:21:23;;;;;;;21.35;19.17;;;;;;;;;;4978894;28;20066;-74
2022/07/24 05:23:49;;;;;;;21.98;19.85;;;;;;;;;;4996366;28;20028;-72
2022/07/24 05:26:15;;;;;;;24.15;18.73;;;;;;;;;;4996138;28;20022;-71
2022/07/24 05:28:41;;;;;;;27.35;18.65;;;;;;;;;;4996121;28;20389;-72
2022/07/24 05:31:08;;;;;;;22.20;17.73;;;;;;;;;;4995867;28;20034;-70
2022/07/24 05:33:34;;;;;;;20.17;16.77;;;;;;;;;;4995241;28;20026;-70
2022/07/24 05:36:00;;;;;;;20.85;17.70;;;;;;;;;;4996314;28;20026;-71
2022/07/24 05:38:26;;;;;;;21.63;18.08;;;;;;;;;;4978370;28;20027;-71
2022/07/24 05:40:52;;;;;;;20.02;17.40;;;;;;;;;;4996141;28;20041;-72
2022/07/24 05:43:18;;;;;;;22.35;18.88;;;;;;;;;;4995726;28;20026;-72
2022/07/24 05:45:45;;;;;;;22.70;18.15;;;;;;;;;;4996121;28;20027;-71
2022/07/24 05:48:11;;;;;;;22.05;17.33;;;;;;;;;;4996021;28;20405;-69
2022/07/24 05:50:37;;;;;;;22.10;17.05;;;;;;;;;;4995920;28;20042;-71
2022/07/24 05:53:03;;;;;;;24.52;16.98;;;;;;;;;;4995640;28;20027;-71
2022/07/24 05:55:29;;;;;;;24.60;17.08;;;;;;;;;;4995292;28;20128;-73
2022/07/24 05:57:56;;;;;;;28.38;17.25;;;;;;;;;;4977345;28;20121;-74
2022/07/24 06:00:22;;;;;;;21.73;15.55;;;;;;;;;;4994051;28;20085;-73
2022/07/24 06:02:48;;;;;;;21.30;15.80;;;;;;;;;;4988517;28;20023;-74
2022/07/24 06:05:15;;;;;;;23.08;15.65;;;;;;;;;;4995334;28;20026;-74
2022/07/24 06:07:42;;;;;;;19.73;15.65;;;;;;;;;;4995239;28;20054;-74
2022/07/24 06:10:08;;;;;;;18.95;16.17;;;;;;;;;;4983733;28;20031;-70
2022/07/24 06:12:34;;;;;;;24.50;17.00;;;;;;;;;;4993140;28;20049;-74
2022/07/24 06:15:00;;;;;;;28.02;18.45;;;;;;;;;;4995192;28;20029;-72
2022/07/24 06:17:26;;;;;;;25.05;17.13;;;;;;;;;;4994882;28;20624;-71
2022/07/24 06:19:52;;;;;;;21.55;16.38;;;;;;;;;;4987203;28;20375;-71
2022/07/24 06:22:18;;;;;;;19.73;16.73;;;;;;;;;;4971602;28;20038;-70
2022/07/24 06:24:44;;;;;;;20.13;15.98;;;;;;;;;;4995197;28;20109;-71
2022/07/24 06:27:11;;;;;;;22.77;14.82;;;;;;;;;;4986912;28;20034;-70
2022/07/24 06:29:37;;;;;;;21.30;14.90;;;;;;;;;;4988779;28;20033;-71
2022/07/24 06:32:03;;;;;;;22.20;16.17;;;;;;;;;;4993151;28;20022;-70
2022/07/24 06:34:29;;;;;;;22.58;15.77;;;;;;;;;;4994763;28;20030;-70
2022/07/24 06:36:55;;;;;;;20.48;16.23;;;;;;;;;;4994719;28;20070;-69
2022/07/24 06:39:21;;;;;;;21.85;15.57;;;;;;;;;;4994580;28;20027;-70
2022/07/24 06:41:48;;;;;;;18.13;15.35;;;;;;;;;;4994668;28;20625;-73
2022/07/24 06:44:14;;;;;;;20.42;18.25;;;;;;;;;;4994766;28;20038;-73
2022/07/24 06:46:40;;;;;;;22.77;18.00;;;;;;;;;;4994913;28;20114;-72
2022/07/24 06:49:06;;;;;;;23.40;18.67;;;;;;;;;;4994962;28;20026;-71
2022/07/24 06:51:32;;;;;;;23.95;17.58;;;;;;;;;;4994766;28;20514;-70
2022/07/24 06:53:58;;;;;;;18.98;15.82;;;;;;;;;;4980714;28;20069;-71
2022/07/24 06:56:25;;;;;;;17.75;15.85;;;;;;;;;;4994519;28;20159;-71
2022/07/24 06:58:51;;;;;;;18.52;16.48;;;;;;;;;;4991466;28;20496;-71
2022/07/24 07:01:17;;;;;;;16.48;14.40;;;;;;;;;;4982046;28;20038;-72
2022/07/24 07:03:43;;;;;;;18.73;15.15;;;;;;;;;;4972221;28;20473;-72
2022/07/24 07:06:09;;;;;;;21.13;14.63;;;;;;;;;;4994837;28;20376;-69
2022/07/24 07:08:35;;;;;;;16.75;14.52;;;;;;;;;;4994306;28;20081;-72
2022/07/24 07:11:01;;;;;;;20.30;15.32;;;;;;;;;;4976568;28;20026;-68
2022/07/24 07:13:27;;;;;;;16.90;14.07;;;;;;;;;;4994302;28;20068;-69
2022/07/24 07:15:53;;;;;;;17.83;14.02;;;;;;;;;;4994139;28;20414;-72
2022/07/24 07:18:19;;;;;;;15.05;13.48;;;;;;;;;;4994071;28;20099;-72
2022/07/24 07:20:45;;;;;;;15.45;13.68;;;;;;;;;;4993659;28;20503;-72
2022/07/24 07:23:11;;;;;;;17.13;13.35;;;;;;;;;;4987309;28;20078;-73
2022/07/24 07:25:38;;;;;;;16.02;13.95;;;;;;;;;;4987467;28;20034;-73
2022/07/24 07:28:04;;;;;;;18.60;13.25;;;;;;;;;;4980144;28;20102;-73
2022/07/24 07:30:30;;;;;;;16.77;11.85;;;;;;;;;;4993651;28;20038;-74
2022/07/24 07:32:56;;;;;;;14.63;12.40;;;;;;;;;;4992328;28;20018;-73
2022/07/24 07:35:22;;;;;;;18.63;15.18;;;;;;;;;;4993706;28;20026;-74
2022/07/24 07:37:50;;;;;;;14.23;12.73;;;;;;;;;;4993577;28;20025;-73
2022/07/24 07:40:16;;;;;;;20.67;12.57;;;;;;;;;;4993204;28;20057;-75
2022/07/24 07:42:42;;;;;;;14.85;11.82;;;;;;;;;;4993602;28;20053;-76
2022/07/24 07:45:08;;;;;;;19.08;11.23;;;;;;;;;;4993632;28;20089;-74
2022/07/24 07:47:37;;;;;;;15.07;10.50;;;;;;;;;;4993535;28;20026;-74
2022/07/24 07:50:03;;;;;;;14.20;10.55;;;;;;;;;;4993292;28;20022;-73
2022/07/24 07:52:29;;;;;;;18.17;11.95;;;;;;;;;;4975635;28;20033;-71
2022/07/24 07:54:55;;;;;;;13.15;11.75;;;;;;;;;;4979581;28;20031;-71
2022/07/24 07:57:21;;;;;;;17.30;11.65;;;;;;;;;;4978498;28;20049;-74
2022/07/24 07:59:48;;;;;;;11.90;10.38;;;;;;;;;;4975435;28;20050;-73
2022/07/24 08:02:15;;;;;;;30.25;18.92;;;;;;;;;;4981727;28;20030;-73
2022/07/24 08:04:42;;;;;;;20.15;12.52;;;;;;;;;;4970907;28;20023;-74
2022/07/24 08:07:08;;;;;;;23.92;18.42;;;;;;;;;;4967220;28;20395;-75
2022/07/24 08:09:34;;;;;;;17.75;13.38;;;;;;;;;;4973263;28;20027;-73
2022/07/24 08:12:00;;;;;;;20.77;17.42;;;;;;;;;;4973618;28;20371;-71
2022/07/24 08:14:26;;;;;;;37.40;33.22;;;;;;;;;;4973242;28;20447;-73
2022/07/24 08:16:52;;;;;;;21.05;17.73;;;;;;;;;;4973384;28;20437;-74
2022/07/24 08:19:18;;;;;;;41.20;36.58;;;;;;;;;;4973152;28;20058;-74
2022/07/24 08:21:45;;;;;;;42.95;38.30;;;;;;;;;;4972621;28;20031;-75
2022/07/24 08:24:12;;;;;;;31.55;25.00;;;;;;;;;;4972338;28;20126;-75
2022/07/24 08:26:38;;;;;;;50.38;40.97;;;;;;;;;;4962405;28;20056;-73
2022/07/24 08:29:05;;;;;;;23.60;17.60;;;;;;;;;;4969301;28;20030;-73
2022/07/24 08:31:31;;;;;;;51.47;45.85;;;;;;;;;;4966430;28;20073;-74
2022/07/24 08:33:57;;;;;;;36.28;32.50;;;;;;;;;;4970874;28;20026;-73
2022/07/24 08:36:23;;;;;;;15.50;12.60;;;;;;;;;;4973005;28;20050;-74
2022/07/24 08:38:50;;;;;;;58.28;52.22;;;;;;;;;;4971010;28;20090;-73
2022/07/24 08:41:18;;;;;;;16.90;15.15;;;;;;;;;;4964623;28;20067;-73
2022/07/24 08:43:44;;;;;;;26.98;22.50;;;;;;;;;;4971037;28;20555;-73
2022/07/24 08:46:13;;;;;;;40.22;36.22;;;;;;;;;;4972626;28;20533;-75
2022/07/24 08:48:46;;;;;;;22.40;18.70;;;;;;;;;;4955293;28;20540;-73
2022/07/24 08:51:14;;;;;;;23.48;20.25;;;;;;;;;;4973399;28;20035;-73
2022/07/24 08:53:40;;;;;;;86.85;77.97;;;;;;;;;;4970608;28;20015;-72
2022/07/24 08:56:06;;;;;;;51.17;45.80;;;;;;;;;;4977341;28;20034;-73
2022/07/24 08:58:36;;;;;;;106.65;96.10;;;;;;;;;;4990569;28;20481;-73
2022/07/24 09:01:02;;;;;;;57.88;51.70;;;;;;;;;;4986883;28;20042;-74
2022/07/24 09:03:29;;;;;;;50.15;45.03;;;;;;;;;;4989922;28;20126;-73
2022/07/24 09:05:56;;;;;;;30.52;25.98;;;;;;;;;;4987477;28;20474;-74
2022/07/24 09:08:22;;;;;;;68.18;61.08;;;;;;;;;;4986656;28;20162;-73
2022/07/24 09:11:03;;;;;;;32.85;29.10;;;;;;;;;;4985854;28;20030;-72
2022/07/24 09:13:29;;;;;;;88.18;79.28;;;;;;;;;;4981017;28;20034;-73
2022/07/24 09:15:56;;;;;;;40.90;35.35;;;;;;;;;;4987686;28;20026;-74
2022/07/24 09:18:26;;;;;;;17.98;16.17;;;;;;;;;;4988685;28;20047;-73
2022/07/24 09:20:52;;;;;;;43.05;38.35;;;;;;;;;;4985802;28;20030;-72
2022/07/24 09:23:21;;;;;;;112.15;101.10;;;;;;;;;;4987855;28;20022;-72
2022/07/24 09:25:51;;;;;;;40.30;36.03;;;;;;;;;;4979423;28;20058;-73
2022/07/24 09:28:19;;;;;;;35.47;31.70;;;;;;;;;;4988461;28;20105;-73
2022/07/24 09:30:46;;;;;;;39.80;29.02;;;;;;;;;;4980830;28;20402;-73
2022/07/24 09:33:12;;;;;;;27.42;24.73;;;;;;;;;;4983802;28;20106;-74
2022/07/24 09:35:39;;;;;;;19.88;16.17;;;;;;;;;;4983795;28;20125;-73
2022/07/24 09:38:09;;;;;;;20.20;17.27;;;;;;;;;;4989978;28;20461;-74
2022/07/24 09:40:37;;;;;;;65.30;58.72;;;;;;;;;;4991250;28;20034;-75
2022/07/24 09:43:15;;;;;;;12.43;10.85;;;;;;;;;;4975680;28;20027;-74
2022/07/24 09:45:58;;;;;;;33.95;28.02;;;;;;;;;;4979013;28;20038;-75
2022/07/24 09:48:28;;;;;;;47.30;42.33;;;;;;;;;;4960244;28;20070;-76
2022/07/24 09:50:55;;;;;;;38.90;35.05;;;;;;;;;;4975757;28;20049;-73
2022/07/24 09:53:22;;;;;;;48.03;42.78;;;;;;;;;;4975346;28;20178;-73
2022/07/24 09:56:05;;;;;;;47.78;42.83;;;;;;;;;;4975197;28;20026;-74
2022/07/24 09:58:32;;;;;;;25.48;21.55;;;;;;;;;;4975374;28;20047;-74
2022/07/24 10:01:00;;;;;;;23.23;20.88;;;;;;;;;;4975328;28;20493;-74
2022/07/24 10:03:27;;;;;;;18.90;15.90;;;;;;;;;;4982290;28;20466;-73
2022/07/24 10:05:58;;;;;;;37.58;33.85;;;;;;;;;;4977910;28;20113;-75
2022/07/24 10:08:24;;;;;;;12.50;9.93;;;;;;;;;;4975371;28;20366;-75
2022/07/24 10:10:50;;;;;;;20.23;18.13;;;;;;;;;;4974821;28;20078;-74
2022/07/24 10:13:17;;;;;;;36.92;33.33;;;;;;;;;;4975002;28;20517;-74
2022/07/24 10:15:53;;;;;;;26.77;24.20;;;;;;;;;;4975081;28;20030;-76
2022/07/24 10:18:20;;;;;;;23.58;20.45;;;;;;;;;;4974837;28;20015;-71
2022/07/24 10:20:46;;;;;;;12.98;11.05;;;;;;;;;;4966927;28;20045;-73
2022/07/24 10:23:21;;;;;;;19.77;17.77;;;;;;;;;;4987273;28;20473;-74
2022/07/24 10:26:03;;;;;;;32.22;28.67;;;;;;;;;;4974573;28;20038;-74
2022/07/24 10:28:37;;;;;;;29.60;26.45;;;;;;;;;;4993472;28;20027;-74
2022/07/24 10:31:04;;;;;;;32.72;27.88;;;;;;;;;;4994484;28;20032;-76
2022/07/24 10:33:30;;;;;;;35.55;31.95;;;;;;;;;;4993753;28;20503;-75
2022/07/24 10:35:58;;;;;;;41.50;37.30;;;;;;;;;;4993790;28;20149;-72
2022/07/24 10:38:30;;;;;;;30.40;26.40;;;;;;;;;;4964534;28;20384;-75
2022/07/24 10:41:01;;;;;;;50.58;45.28;;;;;;;;;;4994760;28;20035;-72
2022/07/24 10:43:27;;;;;;;59.45;53.42;;;;;;;;;;4994922;28;20019;-72
2022/07/24 10:45:56;;;;;;;52.15;46.65;;;;;;;;;;4994194;28;20026;-72
2022/07/24 10:48:23;;;;;;;48.45;42.30;;;;;;;;;;4994397;28;20015;-73
2022/07/24 10:50:58;;;;;;;16.38;14.50;;;;;;;;;;4992687;28;20520;-73
2022/07/24 10:53:41;;;;;;;40.25;35.90;;;;;;;;;;4989670;28;20030;-74
2022/07/24 10:56:28;;;;;;;12.35;8.32;;;;;;;;;;4987296;28;20033;-78
2022/07/24 10:59:07;;;;;;;42.83;38.33;;;;;;;;;;4993676;28;20529;-74
2022/07/24 11:01:33;;;;;;;34.28;30.60;;;;;;;;;;4976453;28;20038;-75
2022/07/24 11:04:00;;;;;;;32.45;28.70;;;;;;;;;;4993982;28;20153;-74
2022/07/24 11:06:59;;;;;;;30.23;27.00;;;;;;;;;;4976269;28;20033;-75
2022/07/24 11:09:26;;;;;;;31.05;27.65;;;;;;;;;;4933619;29;20493;-74
2022/07/24 11:11:52;;;;;;;36.30;32.58;;;;;;;;;;4933756;29;20075;-74
2022/07/24 11:14:38;;;;;;;18.15;14.15;;;;;;;;;;4933934;29;20043;-74
2022/07/24 11:17:23;;;;;;;16.10;11.60;;;;;;;;;;4913532;29;20491;-73
2022/07/24 11:19:56;;;;;;;24.63;22.08;;;;;;;;;;4917165;29;20074;-73
2022/07/24 11:22:37;;;;;;;27.30;24.48;;;;;;;;;;4933758;29;20388;-73
2022/07/24 11:25:10;;;;;;;30.65;27.55;;;;;;;;;;4933759;29;20047;-74
2022/07/24 11:27:46;;;;;;;25.40;22.80;;;;;;;;;;4933789;29;20067;-75
2022/07/24 11:30:12;;;;;;;20.73;16.75;;;;;;;;;;4932886;29;20046;-73
2022/07/24 11:32:40;;;;;;;21.88;19.55;;;;;;;;;;4923391;29;20040;-72
2022/07/24 11:35:08;;;;;;;26.65;22.08;;;;;;;;;;4932878;29;20047;-74
2022/07/24 11:37:35;;;;;;;23.70;14.50;;;;;;;;;;4917677;28;20020;-74
2022/07/24 11:40:01;;;;;;;25.75;19.92;;;;;;;;;;4933538;29;20035;-74
2022/07/24 11:42:27;;;;;;;22.50;19.75;;;;;;;;;;4933265;29;20047;-76
2022/07/24 11:44:53;;;;;;;19.52;17.52;;;;;;;;;;4960764;28;20478;-76
2022/07/24 11:47:23;;;;;;;13.93;9.63;;;;;;;;;;4993564;28;20027;-76
2022/07/24 11:49:52;;;;;;;19.75;17.73;;;;;;;;;;4992118;28;20109;-76
2022/07/24 11:52:21;;;;;;;18.17;15.65;;;;;;;;;;4993285;28;20029;-74
2022/07/24 11:54:48;;;;;;;14.73;12.00;;;;;;;;;;4993175;28;20041;-73
2022/07/24 11:57:25;;;;;;;17.55;15.75;;;;;;;;;;4992331;28;20022;-73
2022/07/24 11:59:52;;;;;;;18.98;16.92;;;;;;;;;;4993280;28;20097;-74
2022/07/24 12:02:19;;;;;;;16.83;10.60;;;;;;;;;;4992231;28;20030;-73
2022/07/24 12:04:46;;;;;;;15.30;13.57;;;;;;;;;;4993188;28;20042;-74
2022/07/24 12:07:14;;;;;;;14.60;12.75;;;;;;;;;;4975589;28;20485;-75
2022/07/24 12:09:46;;;;;;;14.57;10.90;;;;;;;;;;4992875;28;20050;-74
2022/07/24 12:12:19;;;;;;;11.82;10.60;;;;;;;;;;4975533;28;20033;-75
2022/07/24 12:14:46;;;;;;;13.27;10.85;;;;;;;;;;4975590;28;20095;-77
2022/07/24 12:17:12;;;;;;;14.10;12.68;;;;;;;;;;4992944;28;20030;-74
2022/07/24 12:19:38;;;;;;;17.13;15.32;;;;;;;;;;4992848;28;20424;-75
2022/07/24 12:22:06;;;;;;;18.10;16.30;;;;;;;;;;4992884;28;20026;-77
2022/07/24 12:24:32;;;;;;;12.23;10.23;;;;;;;;;;4990656;28;20022;-74
2022/07/24 12:26:59;;;;;;;8.85;7.90;;;;;;;;;;4986815;28;20393;-75
2022/07/24 12:29:27;;;;;;;15.98;9.45;;;;;;;;;;4985447;28;20037;-72
2022/07/24 12:31:54;;;;;;;37.50;33.50;;;;;;;;;;4992319;28;20025;-72
2022/07/24 12:34:20;;;;;;;12.77;10.63;;;;;;;;;;4992689;28;20477;-76
2022/07/24 12:36:46;;;;;;;22.10;19.92;;;;;;;;;;4992464;28;20036;-77
2022/07/24 12:39:12;;;;;;;39.20;35.00;;;;;;;;;;4992574;28;20026;-77
2022/07/24 12:41:43;;;;;;;14.57;13.02;;;;;;;;;;4989202;28;20054;-73
2022/07/24 12:44:10;;;;;;;44.00;39.72;;;;;;;;;;4990421;28;20027;-72
2022/07/24 12:46:37;;;;;;;38.35;34.55;;;;;;;;;;4992497;28;20019;-75
2022/07/24 12:49:10;;;;;;;33.53;29.48;;;;;;;;;;4992603;28;20077;-74
2022/07/24 12:51:48;;;;;;;26.98;24.08;;;;;;;;;;4992540;28;20101;-75
2022/07/24 12:54:19;;;;;;;142.77;129.18;;;;;;;;;;4975088;28;20085;-72
2022/07/24 12:56:45;;;;;;;49.78;44.53;;;;;;;;;;4992802;28;20030;-73
2022/07/24 12:59:21;;;;;;;55.58;49.90;;;;;;;;;;4974979;28;20046;-74
2022/07/24 13:01:49;;;;;;;35.88;32.20;;;;;;;;;;4972786;28;20038;-73
2022/07/24 13:04:20;;;;;;;49.08;44.33;;;;;;;;;;4992248;28;20425;-74
2022/07/24 13:06:47;;;;;;;39.67;35.92;;;;;;;;;;4979605;28;20022;-75
2022/07/24 13:09:14;;;;;;;61.72;55.55;;;;;;;;;;4976760;28;20018;-75
2022/07/24 13:11:41;;;;;;;58.33;52.20;;;;;;;;;;4996316;28;20033;-73
2022/07/24 13:14:08;;;;;;;58.95;52.97;;;;;;;;;;4996362;28;20030;-73
2022/07/24 13:16:36;;;;;;;54.72;48.97;;;;;;;;;;4996110;28;20018;-76
2022/07/24 13:19:02;;;;;;;51.25;45.92;;;;;;;;;;4996043;28;20054;-74
2022/07/24 13:21:29;;;;;;;40.20;36.05;;;;;;;;;;4996065;28;20038;-74
2022/07/24 13:23:55;;;;;;;58.35;52.78;;;;;;;;;;4996052;28;20028;-76
2022/07/24 13:26:22;;;;;;;44.42;39.85;;;;;;;;;;4995841;28;20026;-75
2022/07/24 13:28:48;;;;;;;73.93;66.95;;;;;;;;;;4995942;28;20486;-74
2022/07/24 13:31:14;;;;;;;31.83;28.45;;;;;;;;;;4995931;28;20478;-73
2022/07/24 13:33:40;;;;;;;14.98;13.45;;;;;;;;;;4981952;28;20023;-74
2022/07/24 13:36:07;;;;;;;36.83;32.97;;;;;;;;;;4995988;28;20042;-73
2022/07/24 13:38:33;;;;;;;13.75;11.60;;;;;;;;;;4995672;28;20034;-73
2022/07/24 13:40:59;;;;;;;15.10;10.85;;;;;;;;;;4995754;28;20117;-73
2022/07/24 13:43:25;;;;;;;24.13;21.75;;;;;;;;;;4995770;28;20033;-73
2022/07/24 13:45:52;;;;;;;11.10;10.05;;;;;;;;;;4995658;28;20032;-74
2022/07/24 13:48:18;;;;;;;20.10;16.20;;;;;;;;;;4995531;28;20033;-73
2022/07/24 13:50:44;;;;;;;48.08;43.45;;;;;;;;;;4995409;28;20034;-73
2022/07/24 13:53:10;;;;;;;28.45;25.50;;;;;;;;;;4996003;28;20027;-73
2022/07/24 13:55:36;;;;;;;17.80;15.38;;;;;;;;;;4995524;28;20394;-74
2022/07/24 13:58:02;;;;;;;24.02;21.65;;;;;;;;;;4995303;28;20494;-74
2022/07/24 14:00:29;;;;;;;22.35;11.95;;;;;;;;;;4977873;28;20054;-73
2022/07/24 14:02:55;;;;;;;36.33;32.58;;;;;;;;;;4993555;28;20135;-73
2022/07/24 14:05:25;;;;;;;29.70;26.77;;;;;;;;;;4995489;28;20064;-73
2022/07/24 14:07:52;;;;;;;37.65;33.85;;;;;;;;;;4995432;28;20019;-72
2022/07/24 14:10:18;;;;;;;23.08;20.77;;;;;;;;;;4995292;28;20113;-72
2022/07/24 14:12:44;;;;;;;41.55;37.38;;;;;;;;;;4995156;28;20031;-73
2022/07/24 14:15:12;;;;;;;14.65;13.25;;;;;;;;;;4995423;28;20058;-71
2022/07/24 14:17:38;;;;;;;42.25;38.08;;;;;;;;;;4994528;28;20204;-73
2022/07/24 14:20:05;;;;;;;22.08;19.83;;;;;;;;;;4988923;28;20085;-72